• Join FlightAware (Why Join?)
  • Login
  • US Flag 
 
08:55PM EST


 

Airport Tracker/Info


-or-


 

Live Flight TrackerFlight Track Log ✈ EJA947 ✈ 15-Apr-2013 ✈ KSAN - KBWI

Flight Track Log - Related Links

Times and Time Zones

All times are in EDT time to prevent confusion due to time zone crossing. See the EJA947 flight status page for this flight to view local times or setup timezone preferences in your user account.

Time Position Orientation Groundspeed Altitude Reporting Facility
EDT Latitude Longitude Course Direction KTS MPH feet Rate Location/Type
04:50PM 32.7333 -117.2167 287° West 195 224 1,300  Level Southern California TRACON
04:51PM 32.7500 -117.2833 287° West 232 267 4,000 2,940 Climbing Southern California TRACON
04:51PM 32.7592 -117.2981 307° West 228 262 4,800 3,300 Climbing Los Angeles Center
04:52PM 32.7081 -117.3325 210° Southwest 263 303 8,400 2,880 Climbing Los Angeles Center
04:53PM 32.6522 -117.2606 133° Southeast 298 343 10,900 2,400 Climbing Los Angeles Center
04:54PM 32.6378 -117.1581 99° East 320 368 13,400 1,560 Climbing Los Angeles Center
04:55PM 32.6175 -117.0194 100° East 352 405 14,200 780 Climbing Los Angeles Center
04:56PM 32.6206 -116.8811 88° East 411 473 15,100 1,020 Climbing Los Angeles Center
04:58PM 32.6347 -116.7386 83° East 433 498 16,400 1,380 Climbing Los Angeles Center
04:59PM 32.6481 -116.5942 84° East 442 509 18,000 1,440 Climbing Los Angeles Center
05:00PM 32.6611 -116.4500 84° East 446 513 19,400 1,440 Climbing Los Angeles Center
05:01PM 32.6783 -116.2728 83° East 459 528 21,000 1,560 Climbing Los Angeles Center
05:02PM 32.6922 -116.1228 84° East 464 534 22,700 1,500 Climbing Los Angeles Center
05:03PM 32.7075 -115.9683 83° East 474 545 24,100 1,440 Climbing Los Angeles Center
05:04PM 32.7219 -115.8089 84° East 486 559 25,700 1,680 Climbing Los Angeles Center
05:05PM 32.7394 -115.6131 84° East 497 572 27,600 1,560 Climbing Los Angeles Center
05:06PM 32.7517 -115.4478 85° East 503 579 29,000 1,380 Climbing Los Angeles Center
05:07PM 32.7550 -115.2769 89° East 517 595 30,500 1,620 Climbing Los Angeles Center
05:08PM 32.7608 -115.1064 88° East 513 590 32,400 1,740 Climbing Los Angeles Center
05:09PM 32.7650 -114.9358 88° East 515 593 34,200 1,200 Climbing Los Angeles Center
05:10PM 32.7683 -114.7611 89° East 525 604 35,000 360 Climbing Los Angeles Center
05:11PM 32.7719 -114.5453 89° East 541 623 35,000  Level Los Angeles Center
05:12PM 32.7739 -114.3264 89° East 549 632 35,000  Level Los Angeles Center
05:13PM 32.7772 -114.1464 89° East 543 625 35,000  Level Los Angeles Center
05:14PM 32.7806 -113.9669 89° East 544 626 35,000  Level Los Angeles Center
05:15PM 32.8192 -113.7942 75° East 540 621 35,000 180 Level Los Angeles Center
05:16PM 32.8903 -113.5953 67° East 544 626 35,400 600 Climbing Los Angeles Center
05:17PM 32.9464 -113.4272 68° East 547 629 36,300 900 Climbing Los Angeles Center
05:18PM 32.9981 -113.2758 68° East 552 635 37,300 1,020 Climbing Los Angeles Center
05:19PM 33.0675 -113.0744 68° East 546 628 38,500 1,020 Climbing Los Angeles Center
05:21PM 33.1347 -112.8692 69° East 546 628 39,700 960 Climbing Albuquerque Center
05:22PM 33.1897 -112.7031 68° East 539 620 40,700 600 Climbing Albuquerque Center
05:23PM 33.2392 -112.5556 68° East 526 605 41,000 120 Climbing Albuquerque Center
05:24PM 33.2953 -112.3900 68° East 539 620 41,000  Level Albuquerque Center
05:25PM 33.3614 -112.1878 69° East 548 631 41,000  Level Albuquerque Center
05:26PM 33.4161 -112.0208 69° East 546 628 41,000  Level Albuquerque Center
05:27PM 33.4753 -111.8556 67° East 546 628 41,000  Level Albuquerque Center
05:28PM 33.5361 -111.6908 66° East 546 628 41,000  Level Albuquerque Center
05:29PM 33.5958 -111.5250 67° East 549 632 41,000  Level Albuquerque Center
05:30PM 33.6683 -111.3256 66° East 550 633 41,000  Level Albuquerque Center
05:31PM 33.7283 -111.1586 67° East 550 633 41,000  Level Albuquerque Center
05:32PM 33.7872 -110.9908 67° East 549 632 41,000  Level Albuquerque Center
05:33PM 33.8464 -110.8222 67° East 550 633 41,000  Level Albuquerque Center
05:34PM 33.9047 -110.6542 67° East 548 631 41,000  Level Albuquerque Center
05:35PM 33.9761 -110.4506 67° East 551 634 41,000  Level Albuquerque Center
05:36PM 34.0328 -110.2914 67° East 557 641 41,000  Level Albuquerque Center
05:37PM 34.0914 -110.1203 67° East 557 641 41,000  Level Albuquerque Center
05:38PM 34.1564 -109.9342 67° East 555 639 41,000  Level Albuquerque Center
05:39PM 34.2233 -109.7419 67° East 556 640 41,000  Level Albuquerque Center
05:40PM 34.2792 -109.5753 68° East 558 642 41,000  Level Albuquerque Center
05:41PM 34.3453 -109.3794 68° East 562 647 41,000  Level Albuquerque Center
05:42PM 34.4011 -109.2117 68° East 562 647 41,000  Level Albuquerque Center
05:43PM 34.4611 -109.0175 69° East 557 641 41,000  Level Albuquerque Center
05:44PM 34.5072 -108.8464 72° East 556 640 41,000  Level Albuquerque Center
05:45PM 34.5625 -108.6464 71° East 559 643 41,000  Level Albuquerque Center
05:46PM 34.6092 -108.4714 72° East 565 650 41,000 -60 Level Albuquerque Center
05:48PM 34.6564 -108.2992 72° East 564 649 40,900  Descending Albuquerque Center
05:49PM 34.7047 -108.1194 72° East 562 647 41,000  Climbing Albuquerque Center
05:50PM 34.7528 -107.9372 72° East 566 651 41,000  Level Albuquerque Center
05:51PM 34.8011 -107.7556 72° East 565 650 41,000  Level Albuquerque Center
05:52PM 34.8600 -107.5342 72° East 572 658 41,000  Level Albuquerque Center
05:53PM 34.9086 -107.3469 72° East 578 665 41,000  Level Albuquerque Center
05:54PM 34.9564 -107.1603 73° East 575 662 41,000  Level Albuquerque Center
05:55PM 35.0100 -106.9519 73° East 576 663 41,000  Level Albuquerque Center
05:56PM 35.0578 -106.7783 71° East 568 654 41,000  Level Albuquerque Center
05:57PM 35.1222 -106.6103 65° Northeast 570 656 41,000  Level Albuquerque Center
05:58PM 35.1917 -106.4206 66° East 574 661 41,000  Level Albuquerque Center
05:59PM 35.2572 -106.2453 65° Northeast 570 656 41,000  Level Albuquerque Center
06:00PM 35.3275 -106.0525 66° East 565 650 41,000  Level Albuquerque Center
06:01PM 35.3944 -105.8742 65° Northeast 570 656 41,000  Level Albuquerque Center
06:02PM 35.4589 -105.6956 66° East 569 655 41,000  Level Albuquerque Center
06:03PM 35.5200 -105.5189 67° East 561 646 41,000  Level Albuquerque Center
06:04PM 35.5811 -105.3433 67° East 554 638 41,000  Level Albuquerque Center
06:05PM 35.6478 -105.1642 65° Northeast 564 649 41,000  Level Albuquerque Center
06:06PM 35.7317 -105.0000 58° Northeast 557 641 41,000  Level Albuquerque Center
06:07PM 35.8186 -104.8336 57° Northeast 565 650 41,000  Level Albuquerque Center
06:08PM 35.8933 -104.6564 62° Northeast 572 658 41,000  Level Albuquerque Center
06:09PM 35.9764 -104.4461 64° Northeast 576 663 41,100  Climbing Albuquerque Center
06:10PM 36.0489 -104.2653 64° Northeast 577 664 41,000 -60 Descending Albuquerque Center
06:11PM 36.1203 -104.0836 64° Northeast 579 666 41,000  Level Albuquerque Center
06:12PM 36.1922 -103.9039 64° Northeast 578 665 41,000  Level Albuquerque Center
06:13PM 36.2619 -103.7244 64° Northeast 575 662 41,000  Level Albuquerque Center
06:14PM 36.3322 -103.5447 64° Northeast 574 661 41,100  Climbing Albuquerque Center
06:15PM 36.4008 -103.3647 65° Northeast 573 659 41,000 -60 Descending Albuquerque Center
06:16PM 36.4706 -103.1836 64° Northeast 575 662 41,000  Level Albuquerque Center
06:17PM 36.5397 -103.0028 64° Northeast 574 661 41,000  Level Albuquerque Center
06:18PM 36.6131 -102.8072 65° Northeast 577 664 41,000  Level Albuquerque Center
06:19PM 36.6864 -102.6142 65° Northeast 579 666 41,000  Level Albuquerque Center
06:20PM 36.7497 -102.4417 65° Northeast 585 673 41,000  Level Albuquerque Center
06:21PM 36.8181 -102.2592 65° Northeast 583 671 41,000  Level Albuquerque Center
06:22PM 36.8872 -102.0742 65° Northeast 580 667 41,000  Level Albuquerque Center
06:23PM 36.9639 -101.8681 65° Northeast 585 673 41,000  Level Albuquerque Center
06:25PM 37.0250 -101.6903 67° East 585 673 41,000  Level Albuquerque Center
06:26PM 37.0878 -101.4783 70° East 583 671 41,000  Level Albuquerque Center
06:26PM 37.1233 -101.3564 70° East 584 672 41,000  Level Kansas City Center
06:27PM 37.1858 -101.1442 70° East 584 672 41,000  Level Kansas City Center
06:28PM 37.2389 -100.9608 70° East 587 676 41,000  Level Kansas City Center
06:29PM 37.2992 -100.7478 70° East 586 674 41,000  Level Kansas City Center
06:30PM 37.3517 -100.5647 70° East 588 677 41,000  Level Kansas City Center
06:31PM 37.4122 -100.3508 70° East 588 677 41,000  Level Kansas City Center
06:32PM 37.4647 -100.1656 70° East 589 678 41,000  Level Kansas City Center
06:33PM 37.5247 -99.9500 71° East 589 678 41,000  Level Kansas City Center
06:35PM 37.5769 -99.7622 71° East 592 681 41,000  Level Kansas City Center
06:36PM 37.6394 -99.5442 70° East 594 684 41,000  Level Kansas City Center
06:37PM 37.6900 -99.3564 71° East 590 679 41,000  Level Kansas City Center
06:38PM 37.7433 -99.1575 71° East 594 684 41,000  Level Kansas City Center
06:39PM 37.7942 -98.9603 72° East 593 682 41,000  Level Kansas City Center
06:40PM 37.8450 -98.7606 72° East 595 685 41,000  Level Kansas City Center
06:41PM 37.9108 -98.5231 71° East 595 685 41,000  Level Kansas City Center
06:42PM 37.9633 -98.3206 72° East 600 690 41,000  Level Kansas City Center
06:43PM 38.0169 -98.1114 72° East 594 684 41,000  Level Kansas City Center
06:44PM 38.0642 -97.9083 73° East 595 685 41,000  Level Kansas City Center
06:45PM 38.1158 -97.7278 70° East 594 684 41,000  Level Kansas City Center
06:46PM 38.1750 -97.4917 72° East 597 687 41,000  Level Kansas City Center
06:47PM 38.2222 -97.3092 72° East 594 684 41,000  Level Kansas City Center
06:48PM 38.2717 -97.1078 73° East 595 685 41,000  Level Kansas City Center
06:49PM 38.3219 -96.9067 72° East 597 687 41,000  Level Kansas City Center
06:50PM 38.3711 -96.7050 73° East 597 687 41,000  Level Kansas City Center
06:51PM 38.4286 -96.4633 73° East 594 684 41,000  Level Kansas City Center
06:52PM 38.4731 -96.2806 73° East 596 686 41,000  Level Kansas City Center
06:53PM 38.5275 -96.0533 73° East 600 690 41,000  Level Kansas City Center
06:54PM 38.5719 -95.8597 74° East 598 688 41,000  Level Kansas City Center
06:55PM 38.6250 -95.6339 73° East 595 685 41,000  Level Kansas City Center
06:56PM 38.6708 -95.4406 73° East 597 687 41,000  Level Kansas City Center
06:57PM 38.7233 -95.2142 73° East 597 687 41,000  Level Kansas City Center
06:58PM 38.7664 -95.0214 74° East 593 682 41,000  Level Kansas City Center
06:59PM 38.8172 -94.7967 74° East 594 684 41,000  Level Kansas City Center
07:00PM 38.8608 -94.6044 74° East 591 680 41,000  Level Kansas City Center
07:01PM 38.9103 -94.3794 74° East 591 680 41,000  Level Kansas City Center
07:02PM 38.9531 -94.1844 74° East 593 682 41,000  Level Kansas City Center
07:03PM 39.0017 -93.9586 74° East 591 680 41,000  Level Kansas City Center
07:04PM 39.0439 -93.7644 74° East 591 680 41,000  Level Kansas City Center
07:05PM 39.0922 -93.5364 75° East 592 681 41,000  Level Kansas City Center
07:07PM 39.1364 -93.3372 74° East 592 681 41,000  Level Kansas City Center
07:08PM 39.1783 -93.1358 75° East 591 680 41,000  Level Kansas City Center
07:09PM 39.2192 -92.9364 75° East 587 676 41,000  Level Kansas City Center
07:10PM 39.2686 -92.6964 75° East 586 674 41,000  Level Kansas City Center
07:11PM 39.3089 -92.4967 75° East 584 672 41,000  Level Kansas City Center
07:12PM 39.3478 -92.2975 76° East 581 669 41,000  Level Kansas City Center
07:13PM 39.3878 -92.0992 75° East 580 667 41,000  Level Kansas City Center
07:14PM 39.4269 -91.8994 76° East 580 667 41,000  Level Kansas City Center
07:15PM 39.4744 -91.6608 75° East 579 666 41,000  Level Kansas City Center
07:16PM 39.5128 -91.4628 76° East 575 662 41,000  Level Kansas City Center
07:17PM 39.5483 -91.2761 76° East 575 662 41,000  Level Kansas City Center
07:18PM 39.5942 -91.0356 76° East 573 659 41,000  Level Kansas City Center
07:19PM 39.6303 -90.8350 77° East 572 658 41,000  Level Kansas City Center
07:20PM 39.6681 -90.6347 76° East 570 656 41,000  Level Kansas City Center
07:21PM 39.6917 -90.4333 81° East 567 652 41,000  Level Kansas City Center
07:22PM 39.7006 -90.2272 87° East 569 655 41,000  Level Kansas City Center
07:23PM 39.7097 -90.0228 87° East 567 652 41,000  Level Kansas City Center
07:24PM 39.7186 -89.7972 87° East 568 654 41,000  Level Kansas City Center
07:25PM 39.7278 -89.5922 87° East 570 656 41,000  Level Kansas City Center
07:26PM 39.7356 -89.3883 87° East 569 655 41,000  Level Kansas City Center
07:27PM 39.7431 -89.1844 87° East 568 654 41,000  Level Kansas City Center
07:28PM 39.7528 -88.9428 87° East 564 649 41,000  Level Kansas City Center
07:29PM 39.7597 -88.7389 87° East 565 650 41,000  Level Kansas City Center
07:30PM 39.7658 -88.5342 88° East 568 654 41,000  Level Kansas City Center
07:31PM 39.7739 -88.3294 87° East 569 655 41,000  Level Kansas City Center
07:32PM 39.7881 -88.1072 85° East 567 652 41,000  Level Kansas City Center
07:33PM 39.8003 -87.9006 86° East 569 655 41,000  Level Kansas City Center
07:34PM 39.8122 -87.6950 86° East 569 655 41,000  Level Kansas City Center
07:35PM 39.8208 -87.5367 86° East 564 649 41,000  Level Indianapolis Center
07:36PM 39.8350 -87.2872 86° East 570 656 41,000  Level Indianapolis Center
07:37PM 39.8467 -87.0808 86° East 570 656 41,000  Level Indianapolis Center
07:38PM 39.8578 -86.8747 86° East 569 655 41,000  Level Indianapolis Center
07:39PM 39.8678 -86.6697 86° East 566 651 41,000  Level Indianapolis Center
07:40PM 39.8778 -86.4653 86° East 564 649 41,000  Level Indianapolis Center
07:41PM 39.8878 -86.2589 86° East 567 652 41,000  Level Indianapolis Center
07:42PM 39.8972 -86.0525 87° East 568 654 41,000  Level Indianapolis Center
07:43PM 39.9069 -85.8378 87° East 568 654 41,000  Level Indianapolis Center
07:44PM 39.9158 -85.6317 87° East 566 651 41,000  Level Indianapolis Center
07:46PM 39.9247 -85.4253 87° East 565 650 41,000  Level Indianapolis Center
07:47PM 39.9317 -85.2192 87° East 565 650 41,000  Level Indianapolis Center
07:48PM 39.9389 -85.0122 87° East 567 652 41,000  Level Indianapolis Center
07:49PM 39.9486 -84.7703 87° East 568 654 41,000  Level Indianapolis Center
07:50PM 39.9558 -84.5633 87° East 567 652 41,000  Level Indianapolis Center
07:51PM 39.9636 -84.3547 87° East 570 656 41,000  Level Indianapolis Center
07:52PM 39.9686 -84.1478 88° East 567 652 41,000  Level Indianapolis Center
07:53PM 39.9744 -83.9386 88° East 569 655 41,000  Level Indianapolis Center
07:54PM 39.9797 -83.7308 88° East 568 654 41,000  Level Indianapolis Center
07:55PM 39.9853 -83.5200 88° East 566 651 41,000  Level Indianapolis Center
07:56PM 39.9908 -83.3061 88° East 570 656 41,000  Level Indianapolis Center
07:57PM 39.9939 -83.0983 89° East 566 651 41,000  Level Indianapolis Center
07:58PM 39.9981 -82.8919 88° East 563 648 41,000  Level Indianapolis Center
07:59PM 40.0019 -82.6869 89° East 562 647 41,000  Level Indianapolis Center
08:00PM 40.0047 -82.4833 89° East 557 641 41,000  Level Indianapolis Center
08:01PM 40.0067 -82.2794 89° East 558 642 41,000  Level Indianapolis Center
08:02PM 40.0100 -82.0758 89° East 557 641 41,000  Level Indianapolis Center
08:03PM 40.0114 -81.8717 89° East 558 642 41,000  Level Indianapolis Center
08:04PM 40.0128 -81.6525 89° East 554 638 41,000  Level Indianapolis Center
08:05PM 40.0144 -81.4497 89° East 555 639 41,000  Level Indianapolis Center
08:06PM 40.0150 -81.2461 90° East 558 642 41,000  Level Indianapolis Center
08:07PM 40.0186 -80.9817 89° East 552 635 41,000  Level Cleveland Center
08:08PM 40.0108 -80.7836 93° East 552 635 41,000  Level Cleveland Center
08:09PM 39.9756 -80.5911 103° East 546 628 41,000  Level Cleveland Center
08:10PM 39.9336 -80.3936 105° East 553 636 41,000  Level Cleveland Center
08:11PM 39.8936 -80.1989 105° East 553 636 41,000 -600 Level Cleveland Center
08:12PM 39.8553 -80.0072 105° East 553 636 39,800 -1,020 Descending Cleveland Center
08:13PM 39.8167 -79.8181 105° East 543 625 39,000 -420 Descending Cleveland Center
08:14PM 39.7733 -79.6025 105° East 549 632 39,000 -120 Level Cleveland Center
08:15PM 39.7486 -79.4886 106° East 565 650 38,900 -1,800 Descending Washington Center
08:16PM 39.7086 -79.3003 105° East 572 658 36,200 -3,420 Descending Washington Center
08:17PM 39.6686 -79.1122 105° East 554 638 32,100 -3,660 Descending Washington Center
08:18PM 39.6372 -78.9706 106° East 539 620 28,900 -3,900 Descending Washington Center
08:19PM 39.5906 -78.7744 107° East 521 600 24,300 -4,380 Descending Washington Center
08:20PM 39.5531 -78.6114 107° East 497 572 20,200 -3,600 Descending Washington Center
08:21PM 39.5156 -78.4403 106° East 463 533 17,200 -2,640 Descending Washington Center
08:22PM 39.4853 -78.2994 106° East 437 503 15,000 -1,140 Descending Washington Center
08:23PM 39.4511 -78.1503 106° East 427 491 15,000  Level Washington Center
08:24PM 39.4167 -77.9986 106° East 427 491 15,000  Level Washington Center
08:25PM 39.3861 -77.8497 105° East 427 491 15,000  Level Washington Center
08:26PM 39.4014 -77.7000 82° East 407 468 15,000 -600 Level Washington Center
08:27PM 39.4225 -77.5556 79° East 407 468 13,800 -1,500 Descending Washington Center
08:28PM 39.4369 -77.4350 81° East 376 433 12,000 -1,860 Descending Washington Center
08:28PM 39.4500 -77.3667 76° East 314 361 11,000 -720 Descending Potomac TRACON
08:29PM 39.4667 -77.2833 75° East 308 354 11,000 -600 Level Potomac TRACON
08:30PM 39.4667 -77.1667 90° East 306 352 9,900 -1,440 Descending Potomac TRACON
08:31PM 39.4833 -77.0667 78° East 302 348 8,200 -1,680 Descending Potomac TRACON
08:32PM 39.5000 -76.9667 78° East 297 342 6,600 -1,500 Descending Potomac TRACON
08:33PM 39.4833 -76.8833 105° East 253 291 5,300 -1,320 Descending Potomac TRACON
08:34PM 39.4333 -76.8333 142° Southeast 238 274 4,000 -660 Descending Potomac TRACON
08:35PM 39.3833 -76.8833 218° Southwest 220 253 4,000  Level Potomac TRACON
08:36PM 39.3500 -76.9500 237° Southwest 185 213 4,000  Level Potomac TRACON
08:37PM 39.3167 -76.9833 218° Southwest 174 200 4,000 -240 Level Potomac TRACON
08:38PM 39.2667 -76.9833 180° South 150 173 3,600 -540 Descending Potomac TRACON
08:39PM 39.2333 -76.9667 159° South 144 166 3,000 -300 Descending Potomac TRACON
08:40PM 39.2000 -76.9333 142° Southeast 127 146 3,000  Level Potomac TRACON
08:41PM 39.1833 -76.9000 123° Southeast 142 163 3,000 -240 Level Potomac TRACON
08:42PM 39.1833 -76.8500 90° East 139 160 2,600 -600 Descending Potomac TRACON
08:43PM 39.1833 -76.8000 90° East 140 161 1,900 -720 Descending Potomac TRACON
08:44PM 39.1833 -76.7500 90° East 125 144 1,200 -660 Descending Potomac TRACON
08:45PM 39.1833 -76.7167 90° East 119 137 600 -600 Descending Potomac TRACON